sensor_id;sensor_type;location;lat;lon;timestamp;temperature;humidity
54429;DHT22;40337;52.978;6.310;2022-08-03T00:01:20;19.10;99.90
54429;DHT22;40337;52.978;6.310;2022-08-03T00:03:46;19.10;99.90
54429;DHT22;40337;52.978;6.310;2022-08-03T00:06:11;19.10;99.90
54429;DHT22;40337;52.978;6.310;2022-08-03T00:08:37;19.10;99.90
54429;DHT22;40337;52.978;6.310;2022-08-03T00:11:02;19.00;99.90
54429;DHT22;40337;52.978;6.310;2022-08-03T00:13:28;19.10;99.90
54429;DHT22;40337;52.978;6.310;2022-08-03T00:15:54;19.10;99.90
54429;DHT22;40337;52.978;6.310;2022-08-03T00:18:20;19.00;99.90
54429;DHT22;40337;52.978;6.310;2022-08-03T00:20:46;19.10;99.90
54429;DHT22;40337;52.978;6.310;2022-08-03T00:23:11;19.00;99.90
54429;DHT22;40337;52.978;6.310;2022-08-03T00:25:37;19.00;99.90
54429;DHT22;40337;52.978;6.310;2022-08-03T00:28:04;19.00;99.90
54429;DHT22;40337;52.978;6.310;2022-08-03T00:30:30;19.00;99.90
54429;DHT22;40337;52.978;6.310;2022-08-03T00:32:56;19.00;99.90
54429;DHT22;40337;52.978;6.310;2022-08-03T00:35:22;19.00;99.90
54429;DHT22;40337;52.978;6.310;2022-08-03T00:37:48;18.90;99.90
54429;DHT22;40337;52.978;6.310;2022-08-03T00:40:15;19.00;99.90
54429;DHT22;40337;52.978;6.310;2022-08-03T00:43:01;18.90;99.90
54429;DHT22;40337;52.978;6.310;2022-08-03T00:45:33;18.90;99.90
54429;DHT22;40337;52.978;6.310;2022-08-03T00:47:59;18.90;99.90
54429;DHT22;40337;52.978;6.310;2022-08-03T00:50:27;18.80;99.90
54429;DHT22;40337;52.978;6.310;2022-08-03T00:52:55;18.80;99.90
54429;DHT22;40337;52.978;6.310;2022-08-03T00:55:21;18.80;99.90
54429;DHT22;40337;52.978;6.310;2022-08-03T00:57:47;18.80;99.90
54429;DHT22;40337;52.978;6.310;2022-08-03T01:00:16;18.80;99.90
54429;DHT22;40337;52.978;6.310;2022-08-03T01:02:43;18.80;99.90
54429;DHT22;40337;52.978;6.310;2022-08-03T01:05:09;18.80;99.90
54429;DHT22;40337;52.978;6.310;2022-08-03T01:07:50;18.80;99.90
54429;DHT22;40337;52.978;6.310;2022-08-03T01:10:35;18.80;99.90
54429;DHT22;40337;52.978;6.310;2022-08-03T01:13:33;18.80;99.90
54429;DHT22;40337;52.978;6.310;2022-08-03T01:16:08;18.80;99.90
54429;DHT22;40337;52.978;6.310;2022-08-03T01:18:54;18.70;99.90
54429;DHT22;40337;52.978;6.310;2022-08-03T01:21:35;18.80;99.90
54429;DHT22;40337;52.978;6.310;2022-08-03T01:27:02;18.80;99.90
54429;DHT22;40337;52.978;6.310;2022-08-03T01:32:57;18.80;99.90
54429;DHT22;40337;52.978;6.310;2022-08-03T01:35:38;18.80;99.90
54429;DHT22;40337;52.978;6.310;2022-08-03T01:38:11;18.80;99.90
54429;DHT22;40337;52.978;6.310;2022-08-03T01:40:39;18.80;99.90
54429;DHT22;40337;52.978;6.310;2022-08-03T01:43:08;18.80;99.90
54429;DHT22;40337;52.978;6.310;2022-08-03T01:45:35;18.80;99.90
54429;DHT22;40337;52.978;6.310;2022-08-03T01:48:02;18.80;99.90
54429;DHT22;40337;52.978;6.310;2022-08-03T01:50:29;18.80;99.90
54429;DHT22;40337;52.978;6.310;2022-08-03T01:52:57;18.80;99.90
54429;DHT22;40337;52.978;6.310;2022-08-03T01:55:24;18.80;99.90
54429;DHT22;40337;52.978;6.310;2022-08-03T01:57:53;18.70;99.90
54429;DHT22;40337;52.978;6.310;2022-08-03T02:00:19;18.70;99.90
54429;DHT22;40337;52.978;6.310;2022-08-03T02:02:48;18.70;99.90
54429;DHT22;40337;52.978;6.310;2022-08-03T02:05:15;18.70;99.90
54429;DHT22;40337;52.978;6.310;2022-08-03T02:07:44;18.70;99.90
54429;DHT22;40337;52.978;6.310;2022-08-03T02:10:12;18.70;99.90
54429;DHT22;40337;52.978;6.310;2022-08-03T02:12:39;18.70;99.90
54429;DHT22;40337;52.978;6.310;2022-08-03T02:15:05;18.70;99.90
54429;DHT22;40337;52.978;6.310;2022-08-03T02:17:33;18.70;99.90
54429;DHT22;40337;52.978;6.310;2022-08-03T02:19:59;18.60;99.90
54429;DHT22;40337;52.978;6.310;2022-08-03T02:22:27;18.60;99.90
54429;DHT22;40337;52.978;6.310;2022-08-03T02:24:53;18.70;99.90
54429;DHT22;40337;52.978;6.310;2022-08-03T02:27:24;18.60;99.90
54429;DHT22;40337;52.978;6.310;2022-08-03T02:30:07;18.60;99.90
54429;DHT22;40337;52.978;6.310;2022-08-03T02:32:38;18.60;99.90
54429;DHT22;40337;52.978;6.310;2022-08-03T02:35:07;18.60;99.90
54429;DHT22;40337;52.978;6.310;2022-08-03T02:37:37;18.60;99.90
54429;DHT22;40337;52.978;6.310;2022-08-03T02:40:05;18.60;99.90
54429;DHT22;40337;52.978;6.310;2022-08-03T02:42:32;18.60;99.90
54429;DHT22;40337;52.978;6.310;2022-08-03T02:45:01;18.60;99.90
54429;DHT22;40337;52.978;6.310;2022-08-03T02:47:28;18.60;99.90
54429;DHT22;40337;52.978;6.310;2022-08-03T02:49:56;18.50;99.90
54429;DHT22;40337;52.978;6.310;2022-08-03T02:52:25;18.50;99.90
54429;DHT22;40337;52.978;6.310;2022-08-03T02:54:54;18.50;99.90
54429;DHT22;40337;52.978;6.310;2022-08-03T02:57:21;18.50;99.90
54429;DHT22;40337;52.978;6.310;2022-08-03T02:59:47;18.50;99.90
54429;DHT22;40337;52.978;6.310;2022-08-03T03:02:14;18.50;99.90
54429;DHT22;40337;52.978;6.310;2022-08-03T03:04:42;18.50;99.90
54429;DHT22;40337;52.978;6.310;2022-08-03T03:07:13;18.40;99.90
54429;DHT22;40337;52.978;6.310;2022-08-03T03:09:39;18.40;99.90
54429;DHT22;40337;52.978;6.310;2022-08-03T03:12:07;18.40;99.90
54429;DHT22;40337;52.978;6.310;2022-08-03T03:14:34;18.30;99.90
54429;DHT22;40337;52.978;6.310;2022-08-03T03:17:01;18.30;99.90
54429;DHT22;40337;52.978;6.310;2022-08-03T03:19:27;18.30;99.90
54429;DHT22;40337;52.978;6.310;2022-08-03T03:21:54;18.30;99.90
54429;DHT22;40337;52.978;6.310;2022-08-03T03:24:20;18.20;99.90
54429;DHT22;40337;52.978;6.310;2022-08-03T03:26:47;18.20;99.90
54429;DHT22;40337;52.978;6.310;2022-08-03T03:29:14;18.20;99.90
54429;DHT22;40337;52.978;6.310;2022-08-03T03:31:39;18.20;99.90
54429;DHT22;40337;52.978;6.310;2022-08-03T03:34:05;18.10;99.90
54429;DHT22;40337;52.978;6.310;2022-08-03T03:36:31;18.10;99.90
54429;DHT22;40337;52.978;6.310;2022-08-03T03:38:57;18.10;99.90
54429;DHT22;40337;52.978;6.310;2022-08-03T03:41:23;18.10;99.90
54429;DHT22;40337;52.978;6.310;2022-08-03T03:43:49;18.10;99.90
54429;DHT22;40337;52.978;6.310;2022-08-03T03:46:15;18.10;99.90
54429;DHT22;40337;52.978;6.310;2022-08-03T03:48:41;18.10;99.90
54429;DHT22;40337;52.978;6.310;2022-08-03T03:51:07;18.10;99.90
54429;DHT22;40337;52.978;6.310;2022-08-03T03:53:33;18.10;99.90
54429;DHT22;40337;52.978;6.310;2022-08-03T03:55:58;18.00;99.90
54429;DHT22;40337;52.978;6.310;2022-08-03T03:58:24;18.00;99.90
54429;DHT22;40337;52.978;6.310;2022-08-03T04:00:50;18.00;99.90
54429;DHT22;40337;52.978;6.310;2022-08-03T04:03:18;18.00;99.90
54429;DHT22;40337;52.978;6.310;2022-08-03T04:05:44;18.00;99.90
54429;DHT22;40337;52.978;6.310;2022-08-03T04:08:28;18.00;99.90
54429;DHT22;40337;52.978;6.310;2022-08-03T04:11:23;18.00;99.90
54429;DHT22;40337;52.978;6.310;2022-08-03T04:14:04;18.00;99.90
54429;DHT22;40337;52.978;6.310;2022-08-03T04:16:34;18.00;99.90
54429;DHT22;40337;52.978;6.310;2022-08-03T04:19:17;18.00;99.90
54429;DHT22;40337;52.978;6.310;2022-08-03T04:21:46;18.00;99.90
54429;DHT22;40337;52.978;6.310;2022-08-03T04:24:14;18.10;99.90
54429;DHT22;40337;52.978;6.310;2022-08-03T04:26:40;18.00;99.90
54429;DHT22;40337;52.978;6.310;2022-08-03T04:29:09;18.00;99.90
54429;DHT22;40337;52.978;6.310;2022-08-03T04:31:37;18.00;99.90
54429;DHT22;40337;52.978;6.310;2022-08-03T04:34:04;18.10;99.90
54429;DHT22;40337;52.978;6.310;2022-08-03T04:36:32;18.10;99.90
54429;DHT22;40337;52.978;6.310;2022-08-03T04:39:07;18.10;99.90
54429;DHT22;40337;52.978;6.310;2022-08-03T04:41:33;18.10;99.90
54429;DHT22;40337;52.978;6.310;2022-08-03T04:44:00;18.10;99.90
54429;DHT22;40337;52.978;6.310;2022-08-03T04:46:30;18.10;99.90
54429;DHT22;40337;52.978;6.310;2022-08-03T04:48:56;18.10;99.90
54429;DHT22;40337;52.978;6.310;2022-08-03T04:51:22;18.10;99.90
54429;DHT22;40337;52.978;6.310;2022-08-03T04:53:48;18.10;99.90
54429;DHT22;40337;52.978;6.310;2022-08-03T04:56:13;18.10;99.90
54429;DHT22;40337;52.978;6.310;2022-08-03T04:58:39;18.20;99.90
54429;DHT22;40337;52.978;6.310;2022-08-03T05:01:05;18.20;99.90
54429;DHT22;40337;52.978;6.310;2022-08-03T05:03:30;18.20;99.90
54429;DHT22;40337;52.978;6.310;2022-08-03T05:05:56;18.20;99.90
54429;DHT22;40337;52.978;6.310;2022-08-03T05:08:22;18.30;99.90
54429;DHT22;40337;52.978;6.310;2022-08-03T05:10:48;18.30;99.90
54429;DHT22;40337;52.978;6.310;2022-08-03T05:13:13;18.30;99.90
54429;DHT22;40337;52.978;6.310;2022-08-03T05:15:39;18.40;99.90
54429;DHT22;40337;52.978;6.310;2022-08-03T05:18:06;18.40;99.90
54429;DHT22;40337;52.978;6.310;2022-08-03T05:20:31;18.50;99.90
54429;DHT22;40337;52.978;6.310;2022-08-03T05:22:58;18.50;99.90
54429;DHT22;40337;52.978;6.310;2022-08-03T05:25:26;18.60;99.90
54429;DHT22;40337;52.978;6.310;2022-08-03T05:27:51;18.60;99.90
54429;DHT22;40337;52.978;6.310;2022-08-03T05:30:17;18.60;99.90
54429;DHT22;40337;52.978;6.310;2022-08-03T05:32:42;18.70;99.90
54429;DHT22;40337;52.978;6.310;2022-08-03T05:35:08;18.70;99.90
54429;DHT22;40337;52.978;6.310;2022-08-03T05:37:34;18.80;99.90
54429;DHT22;40337;52.978;6.310;2022-08-03T05:39:59;18.80;99.90
54429;DHT22;40337;52.978;6.310;2022-08-03T05:42:25;18.80;99.90
54429;DHT22;40337;52.978;6.310;2022-08-03T05:44:51;18.80;99.90
54429;DHT22;40337;52.978;6.310;2022-08-03T05:47:17;18.80;99.90
54429;DHT22;40337;52.978;6.310;2022-08-03T05:49:43;18.80;99.90
54429;DHT22;40337;52.978;6.310;2022-08-03T05:52:08;18.90;99.90
54429;DHT22;40337;52.978;6.310;2022-08-03T05:54:34;18.90;99.90
54429;DHT22;40337;52.978;6.310;2022-08-03T05:56:59;18.90;99.90
54429;DHT22;40337;52.978;6.310;2022-08-03T05:59:25;19.00;99.90
54429;DHT22;40337;52.978;6.310;2022-08-03T06:01:51;19.00;99.90
54429;DHT22;40337;52.978;6.310;2022-08-03T06:04:16;19.10;99.90
54429;DHT22;40337;52.978;6.310;2022-08-03T06:06:42;19.10;99.90
54429;DHT22;40337;52.978;6.310;2022-08-03T06:09:08;19.20;99.90
54429;DHT22;40337;52.978;6.310;2022-08-03T06:11:35;19.20;99.90
54429;DHT22;40337;52.978;6.310;2022-08-03T06:14:01;19.30;99.90
54429;DHT22;40337;52.978;6.310;2022-08-03T06:16:27;19.40;99.90
54429;DHT22;40337;52.978;6.310;2022-08-03T06:18:52;19.40;99.90
54429;DHT22;40337;52.978;6.310;2022-08-03T06:21:18;19.50;99.90
54429;DHT22;40337;52.978;6.310;2022-08-03T06:23:45;19.50;99.90
54429;DHT22;40337;52.978;6.310;2022-08-03T06:26:11;19.60;99.90
54429;DHT22;40337;52.978;6.310;2022-08-03T06:28:36;19.60;99.90
54429;DHT22;40337;52.978;6.310;2022-08-03T06:31:02;19.60;99.90
54429;DHT22;40337;52.978;6.310;2022-08-03T06:33:28;19.70;99.90
54429;DHT22;40337;52.978;6.310;2022-08-03T06:35:54;19.70;99.90
54429;DHT22;40337;52.978;6.310;2022-08-03T06:38:19;19.80;99.90
54429;DHT22;40337;52.978;6.310;2022-08-03T06:40:45;19.80;99.90
54429;DHT22;40337;52.978;6.310;2022-08-03T06:43:11;19.90;99.90
54429;DHT22;40337;52.978;6.310;2022-08-03T06:45:38;20.00;99.90
54429;DHT22;40337;52.978;6.310;2022-08-03T06:48:09;20.30;99.90
54429;DHT22;40337;52.978;6.310;2022-08-03T06:50:35;20.80;99.90
54429;DHT22;40337;52.978;6.310;2022-08-03T06:53:03;21.40;99.90
54429;DHT22;40337;52.978;6.310;2022-08-03T06:55:29;21.90;99.90
54429;DHT22;40337;52.978;6.310;2022-08-03T06:57:55;21.90;99.90
54429;DHT22;40337;52.978;6.310;2022-08-03T07:00:21;22.10;99.90
54429;DHT22;40337;52.978;6.310;2022-08-03T07:02:47;22.00;99.90
54429;DHT22;40337;52.978;6.310;2022-08-03T07:05:13;22.00;99.90
54429;DHT22;40337;52.978;6.310;2022-08-03T07:07:39;21.90;99.90
54429;DHT22;40337;52.978;6.310;2022-08-03T07:10:06;22.00;99.90
54429;DHT22;40337;52.978;6.310;2022-08-03T07:12:34;22.10;99.90
54429;DHT22;40337;52.978;6.310;2022-08-03T07:15:00;22.10;99.90
54429;DHT22;40337;52.978;6.310;2022-08-03T07:17:28;22.20;99.90
54429;DHT22;40337;52.978;6.310;2022-08-03T07:19:53;22.20;99.90
54429;DHT22;40337;52.978;6.310;2022-08-03T07:22:19;22.50;99.90
54429;DHT22;40337;52.978;6.310;2022-08-03T07:24:44;22.50;99.90
54429;DHT22;40337;52.978;6.310;2022-08-03T07:27:12;22.50;99.90
54429;DHT22;40337;52.978;6.310;2022-08-03T07:29:37;22.50;99.90
54429;DHT22;40337;52.978;6.310;2022-08-03T07:32:04;22.80;99.90
54429;DHT22;40337;52.978;6.310;2022-08-03T07:34:30;23.20;99.90
54429;DHT22;40337;52.978;6.310;2022-08-03T07:36:56;23.60;99.90
54429;DHT22;40337;52.978;6.310;2022-08-03T07:39:21;23.90;99.90
54429;DHT22;40337;52.978;6.310;2022-08-03T07:41:47;24.20;99.90
54429;DHT22;40337;52.978;6.310;2022-08-03T07:44:16;24.40;99.90
54429;DHT22;40337;52.978;6.310;2022-08-03T07:46:42;24.50;99.90
54429;DHT22;40337;52.978;6.310;2022-08-03T07:49:07;24.50;99.90
54429;DHT22;40337;52.978;6.310;2022-08-03T07:51:33;24.50;99.90
54429;DHT22;40337;52.978;6.310;2022-08-03T07:53:59;24.70;99.90
54429;DHT22;40337;52.978;6.310;2022-08-03T07:56:25;24.70;99.90
54429;DHT22;40337;52.978;6.310;2022-08-03T07:58:51;24.80;99.90
54429;DHT22;40337;52.978;6.310;2022-08-03T08:01:17;24.80;99.90
54429;DHT22;40337;52.978;6.310;2022-08-03T08:03:45;25.10;99.90
54429;DHT22;40337;52.978;6.310;2022-08-03T08:06:10;25.20;99.90
54429;DHT22;40337;52.978;6.310;2022-08-03T08:08:37;25.20;99.90
54429;DHT22;40337;52.978;6.310;2022-08-03T08:11:03;25.20;99.90
54429;DHT22;40337;52.978;6.310;2022-08-03T08:13:28;25.30;99.90
54429;DHT22;40337;52.978;6.310;2022-08-03T08:15:54;25.30;99.90
54429;DHT22;40337;52.978;6.310;2022-08-03T08:18:20;25.40;99.90
54429;DHT22;40337;52.978;6.310;2022-08-03T08:20:45;25.30;99.90
54429;DHT22;40337;52.978;6.310;2022-08-03T08:23:11;25.30;99.90
54429;DHT22;40337;52.978;6.310;2022-08-03T08:25:36;25.30;99.90
54429;DHT22;40337;52.978;6.310;2022-08-03T08:28:02;25.30;99.90
54429;DHT22;40337;52.978;6.310;2022-08-03T08:30:30;25.30;99.90
54429;DHT22;40337;52.978;6.310;2022-08-03T08:32:56;25.30;99.90
54429;DHT22;40337;52.978;6.310;2022-08-03T08:35:22;25.30;99.90
54429;DHT22;40337;52.978;6.310;2022-08-03T08:37:48;25.20;99.90
54429;DHT22;40337;52.978;6.310;2022-08-03T08:40:14;25.20;99.90
54429;DHT22;40337;52.978;6.310;2022-08-03T08:42:41;25.20;99.90
54429;DHT22;40337;52.978;6.310;2022-08-03T08:45:08;25.20;99.90
54429;DHT22;40337;52.978;6.310;2022-08-03T08:47:39;25.30;99.90
54429;DHT22;40337;52.978;6.310;2022-08-03T08:50:07;25.40;99.90
54429;DHT22;40337;52.978;6.310;2022-08-03T08:52:33;25.60;99.90
54429;DHT22;40337;52.978;6.310;2022-08-03T08:55:08;25.60;99.90
54429;DHT22;40337;52.978;6.310;2022-08-03T08:57:48;25.70;99.90
54429;DHT22;40337;52.978;6.310;2022-08-03T09:00:14;25.60;99.90
54429;DHT22;40337;52.978;6.310;2022-08-03T09:02:44;25.70;99.90
54429;DHT22;40337;52.978;6.310;2022-08-03T09:05:12;25.80;99.90
54429;DHT22;40337;52.978;6.310;2022-08-03T09:07:39;26.00;99.90
54429;DHT22;40337;52.978;6.310;2022-08-03T09:10:06;26.10;99.90
54429;DHT22;40337;52.978;6.310;2022-08-03T09:12:43;26.10;99.90
54429;DHT22;40337;52.978;6.310;2022-08-03T09:17:43;26.60;99.90
54429;DHT22;40337;52.978;6.310;2022-08-03T09:20:09;26.80;99.90
54429;DHT22;40337;52.978;6.310;2022-08-03T09:22:35;27.00;99.90
54429;DHT22;40337;52.978;6.310;2022-08-03T09:25:15;27.10;99.90
54429;DHT22;40337;52.978;6.310;2022-08-03T09:27:42;27.10;99.90
54429;DHT22;40337;52.978;6.310;2022-08-03T09:30:15;27.30;99.90
54429;DHT22;40337;52.978;6.310;2022-08-03T09:32:41;27.50;99.90
54429;DHT22;40337;52.978;6.310;2022-08-03T09:35:09;27.60;99.90
54429;DHT22;40337;52.978;6.310;2022-08-03T09:37:36;27.70;99.90
54429;DHT22;40337;52.978;6.310;2022-08-03T09:40:02;27.80;99.90
54429;DHT22;40337;52.978;6.310;2022-08-03T09:42:28;27.90;99.90
54429;DHT22;40337;52.978;6.310;2022-08-03T09:44:54;27.80;99.90
54429;DHT22;40337;52.978;6.310;2022-08-03T09:47:33;27.90;99.90
54429;DHT22;40337;52.978;6.310;2022-08-03T09:50:06;28.00;99.90
54429;DHT22;40337;52.978;6.310;2022-08-03T09:52:39;28.00;99.90
54429;DHT22;40337;52.978;6.310;2022-08-03T09:55:10;28.20;99.90
54429;DHT22;40337;52.978;6.310;2022-08-03T09:57:36;28.20;99.90
54429;DHT22;40337;52.978;6.310;2022-08-03T10:00:13;28.30;99.90
54429;DHT22;40337;52.978;6.310;2022-08-03T10:02:41;28.50;99.90
54429;DHT22;40337;52.978;6.310;2022-08-03T10:05:09;28.50;99.90
54429;DHT22;40337;52.978;6.310;2022-08-03T10:07:46;28.50;99.90
54429;DHT22;40337;52.978;6.310;2022-08-03T10:10:13;28.70;99.90
54429;DHT22;40337;52.978;6.310;2022-08-03T10:12:42;28.70;99.90
54429;DHT22;40337;52.978;6.310;2022-08-03T10:15:09;28.90;99.90
54429;DHT22;40337;52.978;6.310;2022-08-03T10:17:36;28.60;99.90
54429;DHT22;40337;52.978;6.310;2022-08-03T10:20:03;28.70;99.90
54429;DHT22;40337;52.978;6.310;2022-08-03T10:22:35;28.90;99.90
54429;DHT22;40337;52.978;6.310;2022-08-03T10:25:07;29.00;99.90
54429;DHT22;40337;52.978;6.310;2022-08-03T10:27:38;28.80;99.90
54429;DHT22;40337;52.978;6.310;2022-08-03T10:30:09;28.60;99.90
54429;DHT22;40337;52.978;6.310;2022-08-03T10:32:46;28.70;99.90
54429;DHT22;40337;52.978;6.310;2022-08-03T10:35:19;28.90;99.90
54429;DHT22;40337;52.978;6.310;2022-08-03T10:37:55;29.10;99.90
54429;DHT22;40337;52.978;6.310;2022-08-03T10:40:22;29.40;99.90
54429;DHT22;40337;52.978;6.310;2022-08-03T10:42:50;29.40;99.90
54429;DHT22;40337;52.978;6.310;2022-08-03T10:45:20;29.40;99.90
54429;DHT22;40337;52.978;6.310;2022-08-03T10:47:49;29.50;99.90
54429;DHT22;40337;52.978;6.310;2022-08-03T10:50:16;29.60;99.90
54429;DHT22;40337;52.978;6.310;2022-08-03T10:52:56;29.80;99.90
54429;DHT22;40337;52.978;6.310;2022-08-03T10:55:39;29.60;99.90
54429;DHT22;40337;52.978;6.310;2022-08-03T11:01:12;29.30;99.90
54429;DHT22;40337;52.978;6.310;2022-08-03T11:06:32;29.40;99.90
54429;DHT22;40337;52.978;6.310;2022-08-03T11:09:14;29.60;99.90
54429;DHT22;40337;52.978;6.310;2022-08-03T11:11:42;29.50;99.90
54429;DHT22;40337;52.978;6.310;2022-08-03T11:14:10;29.60;99.90
54429;DHT22;40337;52.978;6.310;2022-08-03T11:19:05;29.60;99.90
54429;DHT22;40337;52.978;6.310;2022-08-03T11:32:51;30.20;99.50
54429;DHT22;40337;52.978;6.310;2022-08-03T11:35:24;30.20;99.50
54429;DHT22;40337;52.978;6.310;2022-08-03T11:43:03;30.20;99.40
54429;DHT22;40337;52.978;6.310;2022-08-03T11:45:29;30.00;99.60
54429;DHT22;40337;52.978;6.310;2022-08-03T11:47:56;30.00;99.50
54429;DHT22;40337;52.978;6.310;2022-08-03T11:50:23;30.10;99.70
54429;DHT22;40337;52.978;6.310;2022-08-03T11:52:49;30.20;99.50
54429;DHT22;40337;52.978;6.310;2022-08-03T11:55:18;30.20;98.90
54429;DHT22;40337;52.978;6.310;2022-08-03T11:57:46;30.30;98.70
54429;DHT22;40337;52.978;6.310;2022-08-03T12:00:27;30.30;98.60
54429;DHT22;40337;52.978;6.310;2022-08-03T12:05:20;30.30;98.20
54429;DHT22;40337;52.978;6.310;2022-08-03T12:07:45;30.40;99.00
54429;DHT22;40337;52.978;6.310;2022-08-03T12:10:13;30.40;98.60
54429;DHT22;40337;52.978;6.310;2022-08-03T12:12:39;30.60;99.00
54429;DHT22;40337;52.978;6.310;2022-08-03T12:15:06;30.60;99.00
54429;DHT22;40337;52.978;6.310;2022-08-03T12:17:36;30.60;98.50
54429;DHT22;40337;52.978;6.310;2022-08-03T12:20:05;30.40;97.90
54429;DHT22;40337;52.978;6.310;2022-08-03T12:22:38;30.40;97.60
54429;DHT22;40337;52.978;6.310;2022-08-03T12:25:06;30.40;97.70
54429;DHT22;40337;52.978;6.310;2022-08-03T12:27:33;30.40;97.80
54429;DHT22;40337;52.978;6.310;2022-08-03T12:29:59;30.30;97.90
54429;DHT22;40337;52.978;6.310;2022-08-03T12:32:29;30.30;98.40
54429;DHT22;40337;52.978;6.310;2022-08-03T12:34:56;30.60;97.70
54429;DHT22;40337;52.978;6.310;2022-08-03T12:37:31;30.60;97.30
54429;DHT22;40337;52.978;6.310;2022-08-03T12:39:58;30.70;97.00
54429;DHT22;40337;52.978;6.310;2022-08-03T12:42:33;30.80;97.60
54429;DHT22;40337;52.978;6.310;2022-08-03T12:44:58;30.90;96.70
54429;DHT22;40337;52.978;6.310;2022-08-03T12:47:24;31.10;96.50
54429;DHT22;40337;52.978;6.310;2022-08-03T12:49:51;30.70;95.00
54429;DHT22;40337;52.978;6.310;2022-08-03T12:52:19;30.60;94.80
54429;DHT22;40337;52.978;6.310;2022-08-03T12:54:59;30.60;95.50
54429;DHT22;40337;52.978;6.310;2022-08-03T12:57:41;30.50;94.80
54429;DHT22;40337;52.978;6.310;2022-08-03T13:00:12;30.60;94.90
54429;DHT22;40337;52.978;6.310;2022-08-03T13:02:38;30.70;94.50
54429;DHT22;40337;52.978;6.310;2022-08-03T13:05:13;30.80;94.10
54429;DHT22;40337;52.978;6.310;2022-08-03T13:07:43;30.90;93.00
54429;DHT22;40337;52.978;6.310;2022-08-03T13:10:09;30.70;93.00
54429;DHT22;40337;52.978;6.310;2022-08-03T13:12:46;30.60;92.90
54429;DHT22;40337;52.978;6.310;2022-08-03T13:15:12;30.40;92.10
54429;DHT22;40337;52.978;6.310;2022-08-03T13:17:38;30.50;92.40
54429;DHT22;40337;52.978;6.310;2022-08-03T13:20:04;30.30;91.90
54429;DHT22;40337;52.978;6.310;2022-08-03T13:22:30;30.00;91.90
54429;DHT22;40337;52.978;6.310;2022-08-03T13:24:57;29.80;92.70
54429;DHT22;40337;52.978;6.310;2022-08-03T13:27:26;29.90;93.30
54429;DHT22;40337;52.978;6.310;2022-08-03T13:29:53;29.90;93.40
54429;DHT22;40337;52.978;6.310;2022-08-03T13:32:19;30.10;92.80
54429;DHT22;40337;52.978;6.310;2022-08-03T13:34:46;30.10;93.40
54429;DHT22;40337;52.978;6.310;2022-08-03T13:37:11;30.20;93.50
54429;DHT22;40337;52.978;6.310;2022-08-03T13:39:38;30.20;92.40
54429;DHT22;40337;52.978;6.310;2022-08-03T13:42:04;30.30;92.10
54429;DHT22;40337;52.978;6.310;2022-08-03T13:44:33;30.30;92.00
54429;DHT22;40337;52.978;6.310;2022-08-03T13:47:01;30.20;91.40
54429;DHT22;40337;52.978;6.310;2022-08-03T13:49:27;30.10;91.00
54429;DHT22;40337;52.978;6.310;2022-08-03T13:51:53;30.10;91.30
54429;DHT22;40337;52.978;6.310;2022-08-03T13:54:19;29.90;91.20
54429;DHT22;40337;52.978;6.310;2022-08-03T13:56:44;29.90;90.70
54429;DHT22;40337;52.978;6.310;2022-08-03T13:59:17;29.80;90.90
54429;DHT22;40337;52.978;6.310;2022-08-03T14:01:43;29.90;91.30
54429;DHT22;40337;52.978;6.310;2022-08-03T14:04:08;30.10;90.90
54429;DHT22;40337;52.978;6.310;2022-08-03T14:06:34;30.30;92.30
54429;DHT22;40337;52.978;6.310;2022-08-03T14:08:59;30.30;91.30
54429;DHT22;40337;52.978;6.310;2022-08-03T14:11:25;30.40;91.50
54429;DHT22;40337;52.978;6.310;2022-08-03T14:13:50;30.50;91.50
54429;DHT22;40337;52.978;6.310;2022-08-03T14:16:16;30.60;91.40
54429;DHT22;40337;52.978;6.310;2022-08-03T14:18:41;30.60;91.60
54429;DHT22;40337;52.978;6.310;2022-08-03T14:21:07;30.60;91.70
54429;DHT22;40337;52.978;6.310;2022-08-03T14:23:34;30.40;91.40
54429;DHT22;40337;52.978;6.310;2022-08-03T14:25:59;30.30;91.50
54429;DHT22;40337;52.978;6.310;2022-08-03T14:28:25;30.20;91.40
54429;DHT22;40337;52.978;6.310;2022-08-03T14:30:52;30.30;91.60
54429;DHT22;40337;52.978;6.310;2022-08-03T14:33:19;30.40;91.30
54429;DHT22;40337;52.978;6.310;2022-08-03T14:35:45;30.60;91.30
54429;DHT22;40337;52.978;6.310;2022-08-03T14:38:10;30.60;91.40
54429;DHT22;40337;52.978;6.310;2022-08-03T14:40:36;30.70;91.70
54429;DHT22;40337;52.978;6.310;2022-08-03T14:43:03;30.50;90.90
54429;DHT22;40337;52.978;6.310;2022-08-03T14:45:28;30.40;91.10
54429;DHT22;40337;52.978;6.310;2022-08-03T14:47:54;30.40;91.10
54429;DHT22;40337;52.978;6.310;2022-08-03T14:50:20;30.40;90.90
54429;DHT22;40337;52.978;6.310;2022-08-03T14:52:46;30.20;90.60
54429;DHT22;40337;52.978;6.310;2022-08-03T14:55:12;30.00;90.60
54429;DHT22;40337;52.978;6.310;2022-08-03T14:57:37;29.90;91.00
54429;DHT22;40337;52.978;6.310;2022-08-03T15:00:03;30.10;90.70
54429;DHT22;40337;52.978;6.310;2022-08-03T15:02:29;30.10;90.80
54429;DHT22;40337;52.978;6.310;2022-08-03T15:04:55;30.10;90.30
54429;DHT22;40337;52.978;6.310;2022-08-03T15:07:21;30.10;91.20
54429;DHT22;40337;52.978;6.310;2022-08-03T15:09:46;30.30;90.40
54429;DHT22;40337;52.978;6.310;2022-08-03T15:12:12;30.40;90.40
54429;DHT22;40337;52.978;6.310;2022-08-03T15:14:38;30.30;89.70
54429;DHT22;40337;52.978;6.310;2022-08-03T15:17:03;30.30;87.80
54429;DHT22;40337;52.978;6.310;2022-08-03T15:19:29;30.30;89.50
54429;DHT22;40337;52.978;6.310;2022-08-03T15:21:55;30.20;87.20
54429;DHT22;40337;52.978;6.310;2022-08-03T15:24:20;30.10;88.00
54429;DHT22;40337;52.978;6.310;2022-08-03T15:26:46;30.00;88.30
54429;DHT22;40337;52.978;6.310;2022-08-03T15:29:11;29.90;88.40
54429;DHT22;40337;52.978;6.310;2022-08-03T15:31:38;30.00;90.10
54429;DHT22;40337;52.978;6.310;2022-08-03T15:34:04;30.00;87.60
54429;DHT22;40337;52.978;6.310;2022-08-03T15:36:31;30.10;87.30
54429;DHT22;40337;52.978;6.310;2022-08-03T15:38:56;30.10;86.70
54429;DHT22;40337;52.978;6.310;2022-08-03T15:41:22;30.10;87.00
54429;DHT22;40337;52.978;6.310;2022-08-03T15:43:47;30.00;88.00
54429;DHT22;40337;52.978;6.310;2022-08-03T15:46:13;30.00;85.10
54429;DHT22;40337;52.978;6.310;2022-08-03T15:48:40;29.80;83.10
54429;DHT22;40337;52.978;6.310;2022-08-03T15:51:06;29.60;82.50
54429;DHT22;40337;52.978;6.310;2022-08-03T15:53:32;29.40;82.80
54429;DHT22;40337;52.978;6.310;2022-08-03T15:55:58;29.30;84.10
54429;DHT22;40337;52.978;6.310;2022-08-03T15:58:25;29.20;83.40
54429;DHT22;40337;52.978;6.310;2022-08-03T16:00:55;29.20;84.80
54429;DHT22;40337;52.978;6.310;2022-08-03T16:03:22;29.20;85.60
54429;DHT22;40337;52.978;6.310;2022-08-03T16:05:47;29.10;87.40
54429;DHT22;40337;52.978;6.310;2022-08-03T16:08:13;29.10;86.90
54429;DHT22;40337;52.978;6.310;2022-08-03T16:10:38;29.00;86.00